createdAt,value
2018-07-17T00:00:42.594Z,5.40
2018-07-17T00:03:10.909Z,7.83
2018-07-17T00:05:39.001Z,5.17
2018-07-17T00:08:07.127Z,5.17
2018-07-17T00:10:35.221Z,4.93
2018-07-17T00:13:03.342Z,5.17
2018-07-17T00:15:31.441Z,5.33
2018-07-17T00:17:59.554Z,4.80
2018-07-17T00:20:27.657Z,5.40
2018-07-17T00:22:55.776Z,6.00
2018-07-17T00:25:23.866Z,5.60
2018-07-17T00:27:51.992Z,5.27
2018-07-17T00:30:20.103Z,4.87
2018-07-17T00:32:48.218Z,6.83
2018-07-17T00:35:16.317Z,6.27
2018-07-17T00:37:44.482Z,6.00
2018-07-17T00:40:12.590Z,5.90
2018-07-17T00:42:40.698Z,6.90
2018-07-17T00:45:08.829Z,4.90
2018-07-17T00:47:37.038Z,7.97
2018-07-17T00:50:05.190Z,6.93
2018-07-17T00:52:33.761Z,6.57
2018-07-17T00:55:01.882Z,5.77
2018-07-17T00:57:30.013Z,5.73
2018-07-17T00:59:58.148Z,10.33
2018-07-17T01:02:31.790Z,5.93
2018-07-17T01:05:05.405Z,6.60
2018-07-17T01:07:39.054Z,5.30
2018-07-17T01:10:12.537Z,5.97
2018-07-17T01:12:39.945Z,5.67
2018-07-17T01:15:28.318Z,6.60
2018-07-17T01:17:56.486Z,7.03
2018-07-17T01:20:24.605Z,8.60
2018-07-17T01:22:52.722Z,7.17
2018-07-17T01:25:20.878Z,7.17
2018-07-17T01:27:49.041Z,6.90
2018-07-17T01:30:17.149Z,6.80
2018-07-17T01:32:45.278Z,9.03
2018-07-17T01:35:13.399Z,6.47
2018-07-17T01:37:41.525Z,7.10
2018-07-17T01:40:09.638Z,5.87
2018-07-17T01:42:37.782Z,6.27
2018-07-17T01:45:05.922Z,7.13
2018-07-17T01:47:34.042Z,10.23
2018-07-17T01:50:02.181Z,8.03
2018-07-17T01:52:30.307Z,6.80
2018-07-17T01:54:58.441Z,6.90
2018-07-17T01:57:26.544Z,7.57
2018-07-17T01:59:54.651Z,8.27
2018-07-17T02:02:22.749Z,7.40
2018-07-17T02:04:50.914Z,7.70
2018-07-17T02:07:18.993Z,8.17
2018-07-17T02:09:47.144Z,7.13
2018-07-17T02:12:15.247Z,8.27
2018-07-17T02:14:43.361Z,6.73
2018-07-17T02:17:11.538Z,7.27
2018-07-17T02:19:39.641Z,7.93
2018-07-17T02:22:07.745Z,7.20
2018-07-17T02:24:35.872Z,8.13
2018-07-17T02:27:03.970Z,6.50
2018-07-17T02:29:32.086Z,6.97
2018-07-17T02:32:00.212Z,6.70
2018-07-17T02:34:28.309Z,7.33
2018-07-17T02:36:56.405Z,7.20
2018-07-17T02:39:24.516Z,7.30
2018-07-17T02:41:52.619Z,7.27
2018-07-17T02:44:20.725Z,6.53
2018-07-17T02:46:48.844Z,7.13
2018-07-17T02:49:16.945Z,7.90
2018-07-17T02:51:45.049Z,7.00
2018-07-17T02:54:13.165Z,8.00
2018-07-17T02:56:41.267Z,7.10
2018-07-17T02:59:09.438Z,6.63
2018-07-17T03:01:37.305Z,7.50
2018-07-17T03:04:05.446Z,7.07
2018-07-17T03:06:33.549Z,6.80
2018-07-17T03:09:01.691Z,7.73
2018-07-17T03:11:29.830Z,7.50
2018-07-17T03:13:57.933Z,6.83
2018-07-17T03:16:26.047Z,6.80
2018-07-17T03:18:54.169Z,6.90
2018-07-17T03:21:22.267Z,7.30
2018-07-17T03:23:50.362Z,7.57
2018-07-17T03:26:18.477Z,8.03
2018-07-17T03:28:46.578Z,7.83
2018-07-17T03:31:14.689Z,6.53
2018-07-17T03:33:42.793Z,8.00
2018-07-17T03:36:10.923Z,7.13
2018-07-17T03:38:39.087Z,7.80
2018-07-17T03:41:07.200Z,10.50
2018-07-17T03:43:35.375Z,6.83
2018-07-17T03:46:03.480Z,7.07
2018-07-17T03:48:31.594Z,7.53
2018-07-17T03:50:59.698Z,7.17
2018-07-17T03:53:27.793Z,7.50
2018-07-17T03:55:55.913Z,7.93
2018-07-17T03:58:24.028Z,6.40
2018-07-17T04:00:52.152Z,7.30
2018-07-17T04:03:20.471Z,7.70
2018-07-17T04:05:48.595Z,7.30
2018-07-17T04:08:16.706Z,7.10
2018-07-17T04:10:44.821Z,7.10
2018-07-17T04:13:12.940Z,10.20
2018-07-17T04:15:41.057Z,7.57
2018-07-17T04:18:09.175Z,6.93
2018-07-17T04:20:37.294Z,7.77
2018-07-17T04:23:05.962Z,7.53
2018-07-17T04:25:34.086Z,6.87
2018-07-17T04:28:02.226Z,7.23
2018-07-17T04:30:30.339Z,8.67
2018-07-17T04:32:58.471Z,7.10
2018-07-17T04:35:26.582Z,7.20
2018-07-17T04:37:54.782Z,7.27
2018-07-17T04:40:22.916Z,6.77
2018-07-17T04:42:51.039Z,6.80
2018-07-17T04:45:19.160Z,7.00
2018-07-17T04:47:47.282Z,6.50
2018-07-17T04:50:15.406Z,6.50
2018-07-17T04:52:43.542Z,6.17
2018-07-17T04:55:11.674Z,6.50
2018-07-17T04:57:39.793Z,6.10
2018-07-17T05:00:07.912Z,6.63
2018-07-17T05:02:36.025Z,7.00
2018-07-17T05:05:04.325Z,7.27
2018-07-17T05:07:32.441Z,6.20
2018-07-17T05:10:00.549Z,9.00
2018-07-17T05:12:28.665Z,7.60
2018-07-17T05:14:56.770Z,7.07
2018-07-17T05:17:24.888Z,8.03
2018-07-17T05:19:52.994Z,8.10
2018-07-17T05:22:21.134Z,7.23
2018-07-17T05:24:49.256Z,7.47
2018-07-17T05:27:17.384Z,6.63
2018-07-17T05:29:45.494Z,6.53
2018-07-17T05:32:13.617Z,5.80
2018-07-17T05:34:41.737Z,5.93
2018-07-17T05:37:09.849Z,5.90
2018-07-17T05:39:37.969Z,5.90
2018-07-17T05:42:06.089Z,8.00
2018-07-17T05:44:34.207Z,5.73
2018-07-17T05:47:02.333Z,9.10
2018-07-17T05:49:30.460Z,5.87
2018-07-17T05:51:58.669Z,5.73
2018-07-17T05:54:26.831Z,5.23
2018-07-17T05:56:54.966Z,7.10
2018-07-17T05:59:23.238Z,5.83
2018-07-17T06:01:51.363Z,5.70
2018-07-17T06:04:19.515Z,5.07
2018-07-17T06:06:47.673Z,6.63
2018-07-17T06:09:15.813Z,7.00
2018-07-17T06:11:43.706Z,5.70
2018-07-17T06:14:11.833Z,5.93
2018-07-17T06:16:39.975Z,9.63
2018-07-17T06:19:08.208Z,14.50
2018-07-17T06:21:36.248Z,8.80
2018-07-17T06:24:04.386Z,6.00
2018-07-17T06:26:32.525Z,5.90
2018-07-17T06:29:00.664Z,4.20
2018-07-17T06:31:28.825Z,6.00
2018-07-17T06:33:56.977Z,5.20
2018-07-17T06:36:25.107Z,5.50
2018-07-17T06:38:53.236Z,5.20
2018-07-17T06:41:21.360Z,5.47
2018-07-17T06:43:49.497Z,6.17
2018-07-17T06:46:17.679Z,6.23
2018-07-17T06:48:45.814Z,5.33
2018-07-17T06:51:13.938Z,5.83
2018-07-17T06:53:42.079Z,6.53
2018-07-17T06:56:10.201Z,5.67
2018-07-17T06:58:38.328Z,6.00
2018-07-17T07:01:06.470Z,5.30
2018-07-17T07:03:34.605Z,5.23
2018-07-17T07:06:02.724Z,5.87
2018-07-17T07:08:30.849Z,5.40
2018-07-17T07:10:59.009Z,4.23
2018-07-17T07:13:27.174Z,5.10
2018-07-17T07:15:55.303Z,7.13
2018-07-17T07:18:23.408Z,5.00
2018-07-17T07:20:51.545Z,4.90
2018-07-17T07:23:19.728Z,4.90
2018-07-17T07:25:47.806Z,5.27
2018-07-17T07:28:15.953Z,4.87
2018-07-17T07:30:44.075Z,5.40
2018-07-17T07:33:12.196Z,4.63
2018-07-17T07:35:40.326Z,5.33
2018-07-17T07:38:08.469Z,4.70
2018-07-17T07:40:36.652Z,4.93
2018-07-17T07:43:04.741Z,5.73
2018-07-17T07:45:32.857Z,4.97
2018-07-17T07:48:00.981Z,4.00
2018-07-17T07:50:29.111Z,5.40
2018-07-17T07:52:57.258Z,4.13
2018-07-17T07:55:25.413Z,4.40
2018-07-17T07:57:53.525Z,4.47
2018-07-17T08:00:21.653Z,4.77
2018-07-17T08:02:49.792Z,4.30
2018-07-17T08:05:17.941Z,4.37
2018-07-17T08:07:46.055Z,4.07
2018-07-17T08:10:14.199Z,4.30
2018-07-17T08:12:42.325Z,4.00
2018-07-17T08:15:10.459Z,4.20
2018-07-17T08:17:38.582Z,4.87
2018-07-17T08:20:06.722Z,4.70
2018-07-17T08:22:34.857Z,4.50
2018-07-17T08:25:03.018Z,4.33
2018-07-17T08:27:31.191Z,4.97
2018-07-17T08:29:59.315Z,4.30
2018-07-17T08:32:27.446Z,5.50
2018-07-17T08:34:55.579Z,4.53
2018-07-17T08:37:23.707Z,5.83
2018-07-17T08:39:51.853Z,5.17
2018-07-17T08:42:20.022Z,4.50
2018-07-17T08:44:48.221Z,5.27
2018-07-17T08:47:16.334Z,4.63
2018-07-17T08:49:44.476Z,4.70
2018-07-17T08:52:12.598Z,5.60
2018-07-17T08:54:40.822Z,4.87
2018-07-17T08:57:08.869Z,4.13
2018-07-17T08:59:36.978Z,4.50
2018-07-17T09:02:05.134Z,4.03
2018-07-17T09:04:33.245Z,5.13
2018-07-17T09:07:01.524Z,4.30
2018-07-17T09:09:29.650Z,4.73
2018-07-17T09:11:57.781Z,4.03
2018-07-17T09:14:25.887Z,4.33
2018-07-17T09:16:54.011Z,6.90
2018-07-17T09:19:22.126Z,4.03
2018-07-17T09:21:50.246Z,4.13
2018-07-17T09:24:18.372Z,4.23
2018-07-17T09:26:46.487Z,4.40
2018-07-17T09:29:14.596Z,4.63
2018-07-17T09:31:42.717Z,7.53
2018-07-17T09:34:10.842Z,3.93
2018-07-17T09:36:38.953Z,4.70
2018-07-17T09:39:08.254Z,5.80
2018-07-17T09:41:36.390Z,3.80
2018-07-17T09:44:04.514Z,4.00
2018-07-17T09:46:32.629Z,4.30
2018-07-17T09:49:00.732Z,4.47
2018-07-17T09:51:28.865Z,4.23
2018-07-17T09:53:56.997Z,4.73
2018-07-17T09:56:25.189Z,4.90
2018-07-17T09:58:53.366Z,4.50
2018-07-17T10:02:25.478Z,4.23
2018-07-17T10:04:53.602Z,4.40
2018-07-17T10:07:21.745Z,5.03
2018-07-17T10:09:49.936Z,4.50
2018-07-17T10:12:18.007Z,4.63
2018-07-17T10:14:46.146Z,5.60
2018-07-17T10:17:14.282Z,4.70
2018-07-17T10:19:42.406Z,4.27
2018-07-17T10:22:10.550Z,4.43
2018-07-17T10:24:38.680Z,3.67
2018-07-17T10:27:06.595Z,4.70
2018-07-17T10:29:34.727Z,3.30
2018-07-17T10:32:02.916Z,3.43
2018-07-17T10:34:30.996Z,4.00
2018-07-17T10:36:59.112Z,3.70
2018-07-17T10:39:27.246Z,3.93
2018-07-17T10:41:55.370Z,3.50
2018-07-17T10:44:23.518Z,3.60
2018-07-17T10:46:51.665Z,3.50
2018-07-17T10:49:19.795Z,4.10
2018-07-17T10:51:47.946Z,4.43
2018-07-17T10:54:16.111Z,3.43
2018-07-17T10:56:44.248Z,3.73
2018-07-17T10:59:12.387Z,3.53
2018-07-17T11:01:40.523Z,4.57
2018-07-17T11:04:08.660Z,3.70
2018-07-17T11:06:36.788Z,3.63
2018-07-17T11:09:05.553Z,3.97
2018-07-17T11:11:33.701Z,4.03
2018-07-17T11:14:01.829Z,3.10
2018-07-17T11:16:30.013Z,3.10
2018-07-17T11:18:58.182Z,3.43
2018-07-17T11:21:26.313Z,3.50
2018-07-17T11:23:54.432Z,2.70
2018-07-17T11:26:22.560Z,3.30
2018-07-17T11:28:50.714Z,3.50
2018-07-17T11:31:19.019Z,3.23
2018-07-17T11:33:47.161Z,2.50
2018-07-17T11:36:15.282Z,3.17
2018-07-17T11:38:43.568Z,2.70
2018-07-17T11:41:11.635Z,3.13
2018-07-17T11:43:39.809Z,3.50
2018-07-17T11:46:07.950Z,3.40
2018-07-17T11:48:36.077Z,3.13
2018-07-17T11:51:04.210Z,3.10
2018-07-17T11:53:32.351Z,3.47
2018-07-17T11:56:00.502Z,5.93
2018-07-17T11:58:28.689Z,4.93
2018-07-17T12:00:56.951Z,3.70
2018-07-17T12:03:25.098Z,3.20
2018-07-17T12:05:53.330Z,4.70
2018-07-17T12:08:21.373Z,3.50
2018-07-17T12:10:49.511Z,3.20
2018-07-17T12:13:17.641Z,3.73
2018-07-17T12:15:45.777Z,3.80
2018-07-17T12:18:13.917Z,3.30
2018-07-17T12:20:42.068Z,6.80
2018-07-17T12:23:10.201Z,3.93
2018-07-17T12:25:38.329Z,4.40
2018-07-17T12:28:06.578Z,3.70
2018-07-17T12:30:34.619Z,4.07
2018-07-17T12:33:02.737Z,4.07
2018-07-17T12:35:30.871Z,3.90
2018-07-17T12:37:58.982Z,5.13
2018-07-17T12:40:27.121Z,5.10
2018-07-17T12:42:55.248Z,3.03
2018-07-17T12:45:23.377Z,4.80
2018-07-17T12:47:51.524Z,3.07
2018-07-17T12:50:19.662Z,3.90
2018-07-17T12:52:47.793Z,2.97
2018-07-17T12:55:15.974Z,3.30
2018-07-17T12:57:44.046Z,3.70
2018-07-17T13:00:12.197Z,3.33
2018-07-17T13:02:40.383Z,3.80
2018-07-17T13:05:08.457Z,3.90
2018-07-17T13:07:36.577Z,4.00
2018-07-17T13:10:05.205Z,4.00
2018-07-17T13:12:33.351Z,5.47
2018-07-17T13:15:01.491Z,4.90
2018-07-17T13:17:29.704Z,4.00
2018-07-17T13:19:57.734Z,3.90
2018-07-17T13:22:25.914Z,3.70
2018-07-17T13:24:53.833Z,3.20
2018-07-17T13:27:21.965Z,6.93
2018-07-17T13:29:50.090Z,4.30
2018-07-17T13:32:18.240Z,3.90
2018-07-17T13:34:46.549Z,3.63
2018-07-17T13:37:14.674Z,4.07
2018-07-17T13:39:42.814Z,3.93
2018-07-17T13:42:10.946Z,3.70
2018-07-17T13:44:39.167Z,4.20
2018-07-17T13:47:07.278Z,4.00
2018-07-17T13:49:35.397Z,4.90
2018-07-17T13:52:03.531Z,5.07
2018-07-17T13:54:31.653Z,6.13
2018-07-17T13:56:59.793Z,7.40
2018-07-17T13:59:27.943Z,8.43
2018-07-17T14:01:56.062Z,5.33
2018-07-17T14:04:24.235Z,7.70
2018-07-17T14:06:52.440Z,5.17
2018-07-17T14:09:20.515Z,4.67
2018-07-17T14:11:48.646Z,3.73
2018-07-17T14:14:16.793Z,4.13
2018-07-17T14:16:44.981Z,3.43
2018-07-17T14:19:13.158Z,3.30
2018-07-17T14:21:41.297Z,5.03
2018-07-17T14:24:09.416Z,3.13
2018-07-17T14:26:37.610Z,3.20
2018-07-17T14:29:05.811Z,3.97
2018-07-17T14:31:33.931Z,3.30
2018-07-17T14:34:02.083Z,2.87
2018-07-17T14:36:30.257Z,2.93
2018-07-17T14:38:58.390Z,2.73
2018-07-17T14:41:26.963Z,3.30
2018-07-17T14:43:55.007Z,3.50
2018-07-17T14:46:23.146Z,4.20
2018-07-17T14:48:51.266Z,3.13
2018-07-17T14:51:19.415Z,2.80
2018-07-17T14:53:47.543Z,2.67
2018-07-17T14:56:15.674Z,2.33
2018-07-17T14:58:43.811Z,2.57
2018-07-17T15:01:11.957Z,3.57
2018-07-17T15:03:40.081Z,2.40
2018-07-17T15:06:08.214Z,2.17
2018-07-17T15:08:36.364Z,3.90
2018-07-17T15:11:04.506Z,2.17
2018-07-17T15:13:33.272Z,3.40
2018-07-17T15:16:01.398Z,2.17
2018-07-17T15:18:29.529Z,1.90
2018-07-17T15:20:57.863Z,2.47
2018-07-17T15:23:25.990Z,2.23
2018-07-17T15:25:54.122Z,2.17
2018-07-17T15:28:22.262Z,4.00
2018-07-17T15:30:51.411Z,2.00
2018-07-17T15:33:19.556Z,5.53
2018-07-17T15:35:47.741Z,4.03
2018-07-17T15:38:15.903Z,2.10
2018-07-17T15:40:44.072Z,3.57
2018-07-17T15:43:12.190Z,2.70
2018-07-17T15:45:40.442Z,2.80
2018-07-17T15:48:08.552Z,2.80
2018-07-17T15:50:36.686Z,2.23
2018-07-17T15:53:04.865Z,2.63
2018-07-17T15:55:32.990Z,2.33
2018-07-17T15:58:01.149Z,2.50
2018-07-17T16:00:29.262Z,2.73
2018-07-17T16:02:57.406Z,2.40
2018-07-17T16:05:25.546Z,3.10
2018-07-17T16:07:53.690Z,2.73
2018-07-17T16:10:21.815Z,2.57
2018-07-17T16:12:49.960Z,2.50
2018-07-17T16:15:18.122Z,3.10
2018-07-17T16:17:46.309Z,2.93
2018-07-17T16:20:14.624Z,3.10
2018-07-17T16:22:42.699Z,2.80
2018-07-17T16:25:10.834Z,3.53
2018-07-17T16:27:40.848Z,4.13
2018-07-17T16:30:09.016Z,2.87
2018-07-17T16:32:37.212Z,6.43
2018-07-17T16:35:05.383Z,2.70
2018-07-17T16:37:33.273Z,4.93
2018-07-17T16:40:01.403Z,3.07
2018-07-17T16:42:29.542Z,3.50
2018-07-17T16:44:57.683Z,3.30
2018-07-17T16:47:25.817Z,5.67
2018-07-17T16:49:54.045Z,4.40
2018-07-17T16:52:22.166Z,5.87
2018-07-17T16:54:50.319Z,3.57
2018-07-17T16:57:18.482Z,4.23
2018-07-17T16:59:46.686Z,3.63
2018-07-17T17:02:14.830Z,4.00
2018-07-17T17:04:42.986Z,5.07
2018-07-17T17:07:11.138Z,3.33
2018-07-17T17:09:39.350Z,3.40
2018-07-17T17:12:07.482Z,3.90
2018-07-17T17:14:35.618Z,6.03
2018-07-17T17:17:03.769Z,4.10
2018-07-17T17:19:31.998Z,5.73
2018-07-17T17:21:59.893Z,3.93
2018-07-17T17:24:28.163Z,5.97
2018-07-17T17:26:56.215Z,3.93
2018-07-17T17:29:24.455Z,3.00
2018-07-17T17:31:52.573Z,4.13
2018-07-17T17:34:20.753Z,3.50
2018-07-17T17:36:48.987Z,3.30
2018-07-17T17:39:17.086Z,4.17
2018-07-17T17:41:45.195Z,3.67
2018-07-17T17:44:13.338Z,4.70
2018-07-17T17:46:41.447Z,3.30
2018-07-17T17:49:09.613Z,5.07
2018-07-17T17:51:39.355Z,7.30
2018-07-17T17:54:07.492Z,3.63
2018-07-17T17:56:35.668Z,3.70
2018-07-17T17:59:03.812Z,4.10
2018-07-17T18:01:32.853Z,3.70
2018-07-17T18:04:00.978Z,3.73
2018-07-17T18:06:29.137Z,4.47
2018-07-17T18:08:57.250Z,4.00
2018-07-17T18:11:25.390Z,3.90
2018-07-17T18:13:53.517Z,4.07
2018-07-17T18:16:21.666Z,4.23
2018-07-17T18:18:49.933Z,3.73
2018-07-17T18:21:18.193Z,3.67
2018-07-17T18:23:46.327Z,5.50
2018-07-17T18:26:14.245Z,4.40
2018-07-17T18:28:42.370Z,4.00
2018-07-17T18:31:10.504Z,4.57
2018-07-17T18:33:38.636Z,4.17
2018-07-17T18:36:06.785Z,3.97
2018-07-17T18:38:34.922Z,4.80
2018-07-17T18:41:03.066Z,3.93
2018-07-17T18:43:31.206Z,3.63
2018-07-17T18:45:59.358Z,4.30
2018-07-17T18:48:27.509Z,3.80
2018-07-17T18:50:55.669Z,4.87
2018-07-17T18:53:23.849Z,3.97
2018-07-17T18:55:52.003Z,4.20
2018-07-17T18:58:20.162Z,4.70
2018-07-17T19:00:48.348Z,4.27
2018-07-17T19:03:16.473Z,4.03
2018-07-17T19:05:44.597Z,4.33
2018-07-17T19:08:12.741Z,4.20
2018-07-17T19:10:40.883Z,4.10
2018-07-17T19:13:09.030Z,4.30
2018-07-17T19:15:37.187Z,5.50
2018-07-17T19:18:05.317Z,5.70
2018-07-17T19:20:33.463Z,4.97
2018-07-17T19:23:01.603Z,4.80
2018-07-17T19:25:29.740Z,4.60
2018-07-17T19:27:57.878Z,4.07
2018-07-17T19:30:26.027Z,4.20
2018-07-17T19:32:54.169Z,4.70
2018-07-17T19:35:22.384Z,4.90
2018-07-17T19:37:50.530Z,3.83
2018-07-17T19:40:18.657Z,3.73
2018-07-17T19:42:46.816Z,4.40
2018-07-17T19:45:14.953Z,3.97
2018-07-17T19:47:43.129Z,3.67
2018-07-17T19:50:11.299Z,3.63
2018-07-17T19:52:39.433Z,3.80
2018-07-17T19:55:07.570Z,4.40
2018-07-17T19:57:35.720Z,4.67
2018-07-17T20:00:04.522Z,4.40
2018-07-17T20:02:32.695Z,7.27
2018-07-17T20:05:00.849Z,3.47
2018-07-17T20:07:29.016Z,3.47
2018-07-17T20:09:57.145Z,3.63
2018-07-17T20:12:25.334Z,6.10
2018-07-17T20:14:53.265Z,3.60
2018-07-17T20:17:21.940Z,3.33
2018-07-17T20:19:50.093Z,3.63
2018-07-17T20:22:18.221Z,4.10
2018-07-17T20:24:46.362Z,4.60
2018-07-17T20:27:14.511Z,2.90
2018-07-17T20:29:42.658Z,2.90
2018-07-17T20:32:11.011Z,3.20
2018-07-17T20:34:39.155Z,3.20
2018-07-17T20:37:07.415Z,2.57
2018-07-17T20:39:35.553Z,3.53
2018-07-17T20:42:03.695Z,4.20
2018-07-17T20:44:31.929Z,3.43
2018-07-17T20:47:00.059Z,3.67
2018-07-17T20:49:28.212Z,7.13
2018-07-17T20:51:56.362Z,2.70
2018-07-17T20:54:24.505Z,2.70
2018-07-17T20:56:52.649Z,3.23
2018-07-17T20:59:20.577Z,4.03
2018-07-17T21:01:48.719Z,2.90
2018-07-17T21:04:16.864Z,3.23
2018-07-17T21:06:44.989Z,3.70
2018-07-17T21:09:13.133Z,4.60
2018-07-17T21:11:41.380Z,3.60
2018-07-17T21:14:09.529Z,5.53
2018-07-17T21:16:37.672Z,4.43
2018-07-17T21:19:05.849Z,3.23
2018-07-17T21:21:33.980Z,3.23
2018-07-17T21:24:02.182Z,3.20
2018-07-17T21:26:30.317Z,3.53
2018-07-17T21:28:58.453Z,3.67
2018-07-17T21:31:26.606Z,3.33
2018-07-17T21:33:54.737Z,5.80
2018-07-17T21:36:22.916Z,4.70
2018-07-17T21:38:51.052Z,5.20
2018-07-17T21:41:19.193Z,4.07
2018-07-17T21:43:47.353Z,3.60
2018-07-17T21:46:15.492Z,3.33
2018-07-17T21:48:43.622Z,5.03
2018-07-17T21:51:11.789Z,4.30
2018-07-17T21:53:39.913Z,3.83
2018-07-17T21:56:08.049Z,4.43
2018-07-17T21:58:36.197Z,3.53
2018-07-17T22:01:04.322Z,3.80
2018-07-17T22:03:32.454Z,3.47
2018-07-17T22:06:00.593Z,4.50
2018-07-17T22:08:28.723Z,4.10
2018-07-17T22:10:56.883Z,3.53
2018-07-17T22:13:25.026Z,3.93
2018-07-17T22:15:53.186Z,3.70
2018-07-17T22:18:21.351Z,4.23
2018-07-17T22:20:49.258Z,3.80
2018-07-17T22:23:17.374Z,4.33
2018-07-17T22:25:45.503Z,3.47
2018-07-17T22:28:13.626Z,4.03
2018-07-17T22:30:41.788Z,3.97
2018-07-17T22:33:09.937Z,5.37
2018-07-17T22:35:38.064Z,3.80
2018-07-17T22:38:06.193Z,4.40
2018-07-17T22:40:34.345Z,3.53
2018-07-17T22:43:02.465Z,3.60
2018-07-17T22:45:30.589Z,10.10
2018-07-17T22:47:58.737Z,5.30
2018-07-17T22:50:26.865Z,3.90
2018-07-17T22:52:55.007Z,3.93
2018-07-17T22:55:23.148Z,3.53
2018-07-17T22:57:51.317Z,4.10
2018-07-17T23:00:19.437Z,3.73
2018-07-17T23:02:47.566Z,3.80
2018-07-17T23:05:15.746Z,3.90
2018-07-17T23:07:43.878Z,4.43
2018-07-17T23:10:12.006Z,4.53
2018-07-17T23:12:40.141Z,4.10
2018-07-17T23:15:08.309Z,4.67
2018-07-17T23:17:36.210Z,3.47
2018-07-17T23:20:04.761Z,5.03
2018-07-17T23:22:39.870Z,4.20
2018-07-17T23:25:08.112Z,4.47
2018-07-17T23:27:36.217Z,3.77
2018-07-17T23:30:04.517Z,5.30
2018-07-17T23:32:32.669Z,4.73
2018-07-17T23:35:00.808Z,4.37
2018-07-17T23:37:28.938Z,4.77
2018-07-17T23:39:57.059Z,5.47
2018-07-17T23:42:25.180Z,4.30
2018-07-17T23:44:53.308Z,4.83
2018-07-17T23:47:21.465Z,4.63
2018-07-17T23:49:49.577Z,4.40
2018-07-17T23:52:17.713Z,4.83
2018-07-17T23:54:45.842Z,5.57
2018-07-17T23:57:13.977Z,5.00
2018-07-17T23:59:42.264Z,4.23
